Time,TemperatureF,DewpointF,PressureIn,WindDirection,WindDirectionDegrees,WindSpeedMPH,WindSpeedGustMPH,Humidity,HourlyPrecipIn,Conditions,Clouds,dailyrainin,SoftwareType,DateUTC
2013-06-24 00:01:00,65.1,64.8,30.19,NW,320,0.0,1.0,99,0.17,,,0.36,meteohub,2013-06-24 04:01:00,
2013-06-24 00:02:00,65.1,64.8,30.19,NW,319,0.0,1.0,99,0.17,,,0.36,meteohub,2013-06-24 04:02:00,
2013-06-24 00:07:00,65.1,64.8,30.19,NW,319,0.0,2.0,99,0.17,,,0.37,meteohub,2013-06-24 04:07:00,
2013-06-24 00:12:00,65.1,64.8,30.19,North,359,0.0,2.0,99,0.21,,,0.42,meteohub,2013-06-24 04:12:00,
2013-06-24 00:17:00,65.1,64.8,30.19,West,278,0.0,2.0,99,0.21,,,0.44,meteohub,2013-06-24 04:17:00,
2013-06-24 00:22:00,64.9,64.6,30.19,NNE,25,0.0,1.0,99,0.22,,,0.47,meteohub,2013-06-24 04:22:00,
2013-06-24 00:27:00,64.9,64.6,30.18,NNE,23,0.0,1.0,99,0.26,,,0.49,meteohub,2013-06-24 04:27:00,
2013-06-24 00:32:00,64.9,64.6,30.18,WSW,252,0.0,0.0,99,0.28,,,0.55,meteohub,2013-06-24 04:32:00,
2013-06-24 00:37:00,64.9,64.6,30.18,SW,225,0.0,0.0,99,0.33,,,0.60,meteohub,2013-06-24 04:37:00,
2013-06-24 00:42:00,64.9,64.6,30.19,SW,225,0.0,0.0,99,0.32,,,0.61,meteohub,2013-06-24 04:42:00,
2013-06-24 00:47:00,65.1,64.8,30.19,ESE,105,0.0,0.0,99,0.31,,,0.62,meteohub,2013-06-24 04:47:00,
2013-06-24 00:52:00,64.9,64.6,30.19,ENE,67,0.0,1.0,99,0.32,,,0.65,meteohub,2013-06-24 04:52:00,
2013-06-24 00:57:00,64.9,64.6,30.19,NNE,30,0.0,1.0,99,0.33,,,0.68,meteohub,2013-06-24 04:57:00,
2013-06-24 01:02:00,64.9,64.6,30.19,East,81,1.0,2.0,99,0.39,,,0.75,meteohub,2013-06-24 05:02:00,
2013-06-24 01:07:00,64.9,64.6,30.19,NNW,328,1.0,2.0,99,0.43,,,0.82,meteohub,2013-06-24 05:07:00,
2013-06-24 01:12:00,64.9,64.6,30.19,WNW,283,0.0,2.0,99,0.39,,,0.82,meteohub,2013-06-24 05:12:00,
2013-06-24 01:18:00,64.9,64.6,30.19,WNW,283,0.0,2.0,99,0.37,,,0.82,meteohub,2013-06-24 05:18:00,
2013-06-24 01:23:00,64.9,64.6,30.19,WNW,284,0.0,2.0,99,0.34,,,0.82,meteohub,2013-06-24 05:23:00,
2013-06-24 01:28:00,64.9,64.6,30.19,WNW,284,0.0,1.0,99,0.31,,,0.83,meteohub,2013-06-24 05:28:00,
2013-06-24 01:33:00,64.9,64.6,30.19,WNW,283,0.0,0.0,99,0.31,,,0.88,meteohub,2013-06-24 05:33:00,
2013-06-24 01:38:00,64.9,64.6,30.18,WNW,282,0.0,1.0,99,0.32,,,0.92,meteohub,2013-06-24 05:38:00,
2013-06-24 01:43:00,64.9,64.6,30.19,West,280,0.0,1.0,99,0.31,,,0.92,meteohub,2013-06-24 05:43:00,
2013-06-24 01:48:00,64.9,64.6,30.19,West,281,0.0,1.0,99,0.30,,,0.92,meteohub,2013-06-24 05:48:00,
2013-06-24 01:53:00,64.9,64.6,30.19,West,281,0.0,1.0,99,0.27,,,0.92,meteohub,2013-06-24 05:53:00,
2013-06-24 01:59:00,64.9,64.6,30.18,West,281,0.0,1.0,99,0.21,,,0.92,meteohub,2013-06-24 05:59:00,
2013-06-24 02:04:00,64.8,64.4,30.18,West,281,0.0,1.0,99,0.19,,,0.95,meteohub,2013-06-24 06:04:00,
2013-06-24 02:09:00,64.8,64.4,30.18,West,281,0.0,1.0,99,0.13,,,0.95,meteohub,2013-06-24 06:09:00,
2013-06-24 02:15:00,64.6,64.2,30.18,West,281,0.0,0.0,99,0.13,,,0.95,meteohub,2013-06-24 06:15:00,
2013-06-24 02:20:00,64.6,64.2,30.17,West,281,0.0,0.0,99,0.14,,,0.96,meteohub,2013-06-24 06:20:00,
2013-06-24 02:25:00,64.6,64.2,30.17,West,281,0.0,1.0,99,0.14,,,0.96,meteohub,2013-06-24 06:25:00,
2013-06-24 02:30:00,64.4,64.0,30.17,South,174,0.0,1.0,99,0.13,,,0.96,meteohub,2013-06-24 06:30:00,
2013-06-24 02:35:00,64.2,63.9,30.17,South,186,0.0,0.0,99,0.08,,,0.96,meteohub,2013-06-24 06:35:00,
2013-06-24 02:40:00,64.2,63.9,30.17,West,275,0.0,1.0,99,0.04,,,0.96,meteohub,2013-06-24 06:40:00,
2013-06-24 02:46:00,64.0,63.7,30.17,WSW,246,0.0,1.0,99,0.04,,,0.96,meteohub,2013-06-24 06:46:00,
2013-06-24 02:51:00,63.9,63.5,30.17,WSW,243,0.0,1.0,99,0.04,,,0.96,meteohub,2013-06-24 06:51:00,
2013-06-24 02:56:00,63.7,63.3,30.17,WSW,243,0.0,0.0,99,0.03,,,0.96,meteohub,2013-06-24 06:56:00,
2013-06-24 03:01:00,63.5,63.1,30.17,WSW,243,0.0,0.0,99,0.01,,,0.96,meteohub,2013-06-24 07:01:00,
2013-06-24 03:06:00,63.3,63.0,30.17,WSW,244,0.0,0.0,99,0.01,,,0.96,meteohub,2013-06-24 07:06:00,
2013-06-24 03:12:00,63.3,63.0,30.17,SW,232,0.0,0.0,99,0.01,,,0.96,meteohub,2013-06-24 07:12:00,
2013-06-24 03:17:00,63.3,63.0,30.16,WSW,257,0.0,0.0,99,0.00,,,0.96,meteohub,2013-06-24 07:17:00,
2013-06-24 03:23:00,63.1,62.8,30.17,WSW,253,0.0,0.0,99,0.00,,,0.96,meteohub,2013-06-24 07:23:00,
2013-06-24 03:28:00,63.0,62.6,30.17,WSW,255,0.0,1.0,99,0.00,,,0.96,meteohub,2013-06-24 07:28:00,
2013-06-24 03:34:00,63.1,62.8,30.17,SSW,212,0.0,1.0,99,0.00,,,0.96,meteohub,2013-06-24 07:34:00,
2013-06-24 03:39:00,63.0,62.6,30.17,SSW,212,0.0,1.0,99,0.00,,,0.96,meteohub,2013-06-24 07:39:00,
2013-06-24 03:44:00,63.0,62.6,30.17,SW,214,0.0,1.0,99,0.00,,,0.96,meteohub,2013-06-24 07:44:00,
2013-06-24 03:49:00,63.0,62.6,30.17,SSE,158,0.0,1.0,99,0.00,,,0.96,meteohub,2013-06-24 07:49:00,
2013-06-24 03:54:00,63.0,62.6,30.17,SSE,166,0.0,0.0,99,0.00,,,0.96,meteohub,2013-06-24 07:54:00,
2013-06-24 03:59:00,63.0,62.6,30.17,SSE,163,0.0,0.0,99,0.00,,,0.96,meteohub,2013-06-24 07:59:00,
2013-06-24 04:04:00,63.0,62.6,30.17,SSE,163,0.0,0.0,99,0.00,,,0.96,meteohub,2013-06-24 08:04:00,
2013-06-24 04:09:00,62.8,62.4,30.17,SSE,163,0.0,0.0,99,0.00,,,0.96,meteohub,2013-06-24 08:09:00,
2013-06-24 04:15:00,62.8,62.4,30.17,SSE,163,0.0,0.0,99,0.00,,,0.96,meteohub,2013-06-24 08:15:00,
2013-06-24 04:20:00,62.8,62.4,30.16,SSE,163,0.0,0.0,99,0.00,,,0.96,meteohub,2013-06-24 08:20:00,
2013-06-24 04:25:00,62.6,62.2,30.16,SSE,163,0.0,0.0,99,0.00,,,0.96,meteohub,2013-06-24 08:25:00,
2013-06-24 04:30:00,62.6,62.2,30.16,West,273,0.0,0.0,99,0.00,,,0.96,meteohub,2013-06-24 08:30:00,
2013-06-24 04:35:00,62.4,62.1,30.16,WNW,293,0.0,2.0,99,0.00,,,0.96,meteohub,2013-06-24 08:35:00,
2013-06-24 04:40:00,62.6,62.2,30.16,WNW,293,0.0,2.0,99,0.00,,,0.96,meteohub,2013-06-24 08:40:00,
2013-06-24 04:46:00,62.6,62.6,30.16,NW,308,0.0,1.0,100,0.00,,,0.96,meteohub,2013-06-24 08:46:00,
2013-06-24 04:51:00,62.4,62.1,30.16,NW,308,0.0,1.0,99,0.00,,,0.96,meteohub,2013-06-24 08:51:00,
2013-06-24 04:56:00,62.4,62.4,30.16,NW,308,0.0,0.0,100,0.00,,,0.96,meteohub,2013-06-24 08:56:00,
2013-06-24 05:01:00,62.4,62.1,30.15,NW,308,0.0,0.0,99,0.00,,,0.96,meteohub,2013-06-24 09:01:00,
2013-06-24 05:06:00,62.4,62.1,30.15,NW,308,0.0,0.0,99,0.00,,,0.96,meteohub,2013-06-24 09:06:00,
2013-06-24 07:06:00,63.0,63.0,30.19,North,-999,-999.0,-999.0,100,-99.99,,,0.96,meteohub,2013-06-24 11:06:00,
2013-06-24 07:11:00,63.0,63.0,30.19,North,-999,-999.0,-999.0,100,0.00,,,0.96,meteohub,2013-06-24 11:11:00,
2013-06-24 07:16:00,63.1,63.1,30.18,SW,229,0.0,-999.0,100,0.00,,,0.96,meteohub,2013-06-24 11:16:00,
2013-06-24 07:21:00,63.1,63.1,30.18,SW,229,0.0,-999.0,100,0.00,,,0.96,meteohub,2013-06-24 11:21:00,
2013-06-24 07:26:00,63.3,63.3,30.18,SW,229,0.0,-999.0,100,0.00,,,0.96,meteohub,2013-06-24 11:26:00,
2013-06-24 07:31:00,63.7,63.7,30.18,SW,229,0.0,-999.0,100,0.00,,,0.96,meteohub,2013-06-24 11:31:00,
2013-06-24 07:36:00,64.2,64.2,30.18,SW,229,0.0,-999.0,100,0.00,,,0.96,meteohub,2013-06-24 11:36:00,
2013-06-24 07:41:00,64.2,64.2,30.18,SW,226,0.0,0.0,100,0.00,,,0.96,meteohub,2013-06-24 11:41:00,
2013-06-24 07:46:00,64.0,64.0,30.18,SW,226,0.0,0.0,100,0.00,,,0.96,meteohub,2013-06-24 11:46:00,
2013-06-24 07:52:00,64.6,64.6,30.18,SW,226,0.0,0.0,100,0.00,,,0.96,meteohub,2013-06-24 11:52:00,
2013-06-24 07:57:00,64.9,64.9,30.19,SW,226,0.0,0.0,100,0.00,,,0.96,meteohub,2013-06-24 11:57:00,
2013-06-24 08:02:00,65.5,65.5,30.19,SW,226,0.0,0.0,100,0.00,,,0.96,meteohub,2013-06-24 12:02:00,
2013-06-24 08:07:00,66.0,66.0,30.19,SW,226,0.0,0.0,100,0.00,,,0.96,meteohub,2013-06-24 12:07:00,
2013-06-24 08:13:00,66.4,66.4,30.19,SSE,149,0.0,0.0,100,0.00,,,0.96,meteohub,2013-06-24 12:13:00,
2013-06-24 08:18:00,66.7,66.7,30.19,SSE,149,0.0,1.0,100,0.00,,,0.96,meteohub,2013-06-24 12:18:00,
2013-06-24 08:23:00,66.9,66.9,30.19,East,100,1.0,1.0,100,0.00,,,0.96,meteohub,2013-06-24 12:23:00,
2013-06-24 08:28:00,66.9,66.9,30.19,East,93,0.0,2.0,100,0.00,,,0.96,meteohub,2013-06-24 12:28:00,
2013-06-24 08:33:00,67.3,67.3,30.19,ESE,118,1.0,4.0,100,0.00,,,0.96,meteohub,2013-06-24 12:33:00,
2013-06-24 08:38:00,67.5,67.1,30.19,SE,129,3.0,4.0,99,0.00,,,0.96,meteohub,2013-06-24 12:38:00,
2013-06-24 08:43:00,68.2,67.8,30.19,East,97,0.0,4.0,99,0.00,,,0.96,meteohub,2013-06-24 12:43:00,
2013-06-24 08:49:00,68.9,68.4,30.19,ESE,118,0.0,3.0,98,0.00,,,0.96,meteohub,2013-06-24 12:49:00,
2013-06-24 08:54:00,69.6,68.4,30.19,SW,214,0.0,3.0,96,0.00,,,0.96,meteohub,2013-06-24 12:54:00,
2013-06-24 08:59:00,70.5,68.7,30.19,ESE,103,0.0,2.0,94,0.00,,,0.96,meteohub,2013-06-24 12:59:00,
2013-06-24 09:04:00,71.2,68.5,30.19,SW,221,1.0,2.0,91,0.00,,,0.96,meteohub,2013-06-24 13:04:00,
2013-06-24 09:09:00,71.1,68.5,30.19,SSE,160,0.0,2.0,92,0.00,,,0.96,meteohub,2013-06-24 13:09:00,
2013-06-24 09:14:00,71.2,69.1,30.19,SE,124,0.0,3.0,93,0.00,,,0.96,meteohub,2013-06-24 13:14:00,
2013-06-24 09:20:00,71.4,69.3,30.19,SE,133,0.0,3.0,93,0.00,,,0.96,meteohub,2013-06-24 13:20:00,
2013-06-24 09:25:00,71.6,69.4,30.19,SSE,155,0.0,3.0,93,0.00,,,0.96,meteohub,2013-06-24 13:25:00,
2013-06-24 09:30:00,72.1,69.1,30.19,ESE,114,0.0,4.0,90,0.00,,,0.96,meteohub,2013-06-24 13:30:00,
2013-06-24 09:35:00,72.3,69.6,30.19,SSW,200,1.0,4.0,91,0.00,,,0.96,meteohub,2013-06-24 13:35:00,
2013-06-24 09:40:00,72.9,69.1,30.19,ESE,111,0.0,4.0,88,0.00,,,0.96,meteohub,2013-06-24 13:40:00,
2013-06-24 09:45:00,73.6,69.1,30.19,East,97,0.0,4.0,86,0.00,,,0.96,meteohub,2013-06-24 13:45:00,
2013-06-24 09:50:00,74.3,69.1,30.19,WSW,246,0.0,4.0,84,0.00,,,0.96,meteohub,2013-06-24 13:50:00,
2013-06-24 09:56:00,74.8,68.9,30.19,SSE,147,0.0,4.0,82,0.00,,,0.96,meteohub,2013-06-24 13:56:00,
2013-06-24 10:01:00,75.4,69.8,30.19,SSE,167,1.0,3.0,83,0.00,,,0.96,meteohub,2013-06-24 14:01:00,
2013-06-24 10:06:00,75.0,68.7,30.19,SE,145,0.0,4.0,81,0.00,,,0.96,meteohub,2013-06-24 14:06:00,
2013-06-24 10:11:00,75.2,68.2,30.19,NNW,338,0.0,4.0,79,0.00,,,0.96,meteohub,2013-06-24 14:11:00,
2013-06-24 10:16:00,74.5,67.8,30.20,West,281,0.0,4.0,80,0.00,,,0.96,meteohub,2013-06-24 14:16:00,
2013-06-24 10:21:00,74.8,69.6,30.20,WNW,297,0.0,3.0,84,0.00,,,0.96,meteohub,2013-06-24 14:21:00,
2013-06-24 10:26:00,75.4,69.1,30.19,West,271,0.0,3.0,81,0.00,,,0.96,meteohub,2013-06-24 14:26:00,
2013-06-24 10:31:00,75.7,68.7,30.19,WNW,284,0.0,3.0,79,0.00,,,0.96,meteohub,2013-06-24 14:31:00,
2013-06-24 10:36:00,76.3,68.9,30.19,WSW,249,2.0,3.0,78,0.00,,,0.96,meteohub,2013-06-24 14:36:00,
2013-06-24 10:42:00,76.6,69.3,30.19,ESE,111,1.0,4.0,78,0.00,,,0.96,meteohub,2013-06-24 14:42:00,
2013-06-24 10:47:00,77.2,69.4,30.19,ESE,108,3.0,4.0,77,0.00,,,0.96,meteohub,2013-06-24 14:47:00,
2013-06-24 10:52:00,77.0,69.6,30.19,South,180,2.0,6.0,78,0.00,,,0.96,meteohub,2013-06-24 14:52:00,
2013-06-24 10:57:00,77.4,68.0,30.19,ESE,116,1.0,6.0,73,0.00,,,0.96,meteohub,2013-06-24 14:57:00,
2013-06-24 11:02:00,78.1,69.1,30.19,SSE,158,2.0,6.0,74,0.00,,,0.96,meteohub,2013-06-24 15:02:00,
2013-06-24 11:07:00,77.9,68.2,30.19,West,280,0.0,7.0,72,0.00,,,0.96,meteohub,2013-06-24 15:07:00,
2013-06-24 11:12:00,78.8,68.2,30.19,ESE,108,0.0,7.0,70,0.00,,,0.96,meteohub,2013-06-24 15:12:00,
2013-06-24 11:18:00,79.9,69.3,30.19,SE,142,0.0,6.0,70,0.00,,,0.96,meteohub,2013-06-24 15:18:00,
2013-06-24 11:23:00,80.1,69.8,30.19,South,172,2.0,3.0,71,0.00,,,0.96,meteohub,2013-06-24 15:23:00,
2013-06-24 11:28:00,79.3,69.1,30.19,ENE,72,3.0,5.0,71,0.00,,,0.96,meteohub,2013-06-24 15:28:00,
2013-06-24 11:34:00,79.2,67.6,30.19,East,80,1.0,5.0,68,0.00,,,0.96,meteohub,2013-06-24 15:34:00,
2013-06-24 11:39:00,79.5,68.0,30.19,ESE,105,1.0,8.0,68,0.00,,,0.96,meteohub,2013-06-24 15:39:00,
2013-06-24 11:44:00,80.1,69.8,30.18,South,188,1.0,8.0,71,0.00,,,0.96,meteohub,2013-06-24 15:44:00,
2013-06-24 11:49:00,80.4,68.5,30.18,NNW,336,0.0,4.0,67,0.00,,,0.96,meteohub,2013-06-24 15:49:00,
2013-06-24 11:54:00,80.6,68.5,30.18,WNW,287,0.0,4.0,67,0.00,,,0.96,meteohub,2013-06-24 15:54:00,
2013-06-24 11:59:00,80.2,69.6,30.18,SE,128,0.0,5.0,70,0.00,,,0.96,meteohub,2013-06-24 15:59:00,
2013-06-24 12:04:00,79.7,69.4,30.18,SE,141,1.0,6.0,71,0.00,,,0.96,meteohub,2013-06-24 16:04:00,
2013-06-24 12:10:00,79.9,68.4,30.18,SSE,167,1.0,6.0,68,0.00,,,0.96,meteohub,2013-06-24 16:10:00,
2013-06-24 12:15:00,79.2,68.5,30.18,SE,146,0.0,6.0,70,0.00,,,0.96,meteohub,2013-06-24 16:15:00,
2013-06-24 12:20:00,79.2,69.3,30.18,West,277,2.0,5.0,72,0.00,,,0.96,meteohub,2013-06-24 16:20:00,
2013-06-24 12:25:00,79.5,69.3,30.18,SE,136,2.0,5.0,71,0.00,,,0.96,meteohub,2013-06-24 16:25:00,
2013-06-24 12:30:00,79.9,69.6,30.18,SE,138,3.0,5.0,71,0.00,,,0.96,meteohub,2013-06-24 16:30:00,
2013-06-24 12:36:00,80.1,69.8,30.18,East,86,2.0,7.0,71,0.00,,,0.96,meteohub,2013-06-24 16:36:00,
2013-06-24 12:41:00,79.7,69.4,30.18,ESE,104,1.0,7.0,71,0.00,,,0.96,meteohub,2013-06-24 16:41:00,
2013-06-24 12:46:00,79.3,69.1,30.18,SW,236,0.0,3.0,71,0.00,,,0.96,meteohub,2013-06-24 16:46:00,
2013-06-24 12:51:00,78.6,70.3,30.18,East,93,0.0,7.0,76,0.00,,,0.96,meteohub,2013-06-24 16:51:00,
2013-06-24 12:56:00,78.4,69.8,30.17,NW,309,0.0,7.0,75,0.00,,,0.96,meteohub,2013-06-24 16:56:00,
2013-06-24 13:01:00,77.9,69.8,30.17,ESE,123,0.0,7.0,76,0.00,,,0.96,meteohub,2013-06-24 17:01:00,
2013-06-24 13:06:00,78.3,69.6,30.17,NE,46,0.0,4.0,75,0.00,,,0.96,meteohub,2013-06-24 17:06:00,
2013-06-24 13:11:00,77.5,69.4,30.17,SSW,200,1.0,4.0,76,0.00,,,0.96,meteohub,2013-06-24 17:11:00,
2013-06-24 13:17:00,77.2,69.8,30.17,NW,318,1.0,6.0,78,0.00,,,0.96,meteohub,2013-06-24 17:17:00,
2013-06-24 13:22:00,77.4,69.6,30.17,East,98,0.0,6.0,77,0.00,,,0.96,meteohub,2013-06-24 17:22:00,
2013-06-24 13:27:00,78.8,70.2,30.16,NNW,345,0.0,6.0,75,0.00,,,0.96,meteohub,2013-06-24 17:27:00,
2013-06-24 13:32:00,79.3,70.3,30.16,West,280,0.0,6.0,74,0.00,,,0.96,meteohub,2013-06-24 17:32:00,
2013-06-24 13:37:00,79.5,70.2,30.16,WSW,246,5.0,7.0,73,0.00,,,0.96,meteohub,2013-06-24 17:37:00,
2013-06-24 13:42:00,80.2,68.7,30.15,SE,138,1.0,7.0,68,0.00,,,0.96,meteohub,2013-06-24 17:42:00,
2013-06-24 13:48:00,81.1,69.1,30.15,NNW,338,2.0,7.0,67,0.00,,,0.96,meteohub,2013-06-24 17:48:00,
2013-06-24 13:53:00,81.0,68.0,30.15,West,263,2.0,5.0,65,0.00,,,0.96,meteohub,2013-06-24 17:53:00,
2013-06-24 13:58:00,80.1,68.2,30.14,NNW,335,0.0,9.0,67,0.00,,,0.96,meteohub,2013-06-24 17:58:00,
2013-06-24 14:04:00,80.1,68.9,30.14,WNW,288,2.0,9.0,69,0.00,,,0.96,meteohub,2013-06-24 18:04:00,
2013-06-24 14:09:00,81.7,70.5,30.13,WSW,249,0.0,9.0,69,0.00,,,0.96,meteohub,2013-06-24 18:09:00,
2013-06-24 14:14:00,82.6,70.9,30.13,SW,219,0.0,5.0,68,0.00,,,0.96,meteohub,2013-06-24 18:14:00,
2013-06-24 14:19:00,81.7,69.6,30.12,SW,224,1.0,5.0,67,0.00,,,0.96,meteohub,2013-06-24 18:19:00,
2013-06-24 14:25:00,81.1,69.6,30.12,WNW,283,0.0,5.0,68,0.00,,,0.96,meteohub,2013-06-24 18:25:00,
2013-06-24 14:30:00,81.0,69.4,30.13,WNW,297,1.0,9.0,68,0.00,,,0.96,meteohub,2013-06-24 18:30:00,
2013-06-24 14:36:00,79.9,69.6,30.12,East,90,1.0,5.0,71,0.00,,,0.96,meteohub,2013-06-24 18:36:00,
2013-06-24 14:41:00,79.3,70.0,30.12,NW,309,0.0,5.0,73,0.00,,,0.96,meteohub,2013-06-24 18:41:00,
2013-06-24 14:46:00,79.3,70.7,30.12,NNW,342,1.0,5.0,75,0.00,,,0.96,meteohub,2013-06-24 18:46:00,
2013-06-24 14:51:00,78.1,69.1,30.12,NNE,15,1.0,6.0,74,0.00,,,0.96,meteohub,2013-06-24 18:51:00,
2013-06-24 14:56:00,77.7,70.0,30.12,WNW,289,0.0,7.0,77,0.00,,,0.96,meteohub,2013-06-24 18:56:00,
2013-06-24 15:01:00,76.8,69.8,30.11,SE,129,0.0,7.0,79,0.00,,,0.96,meteohub,2013-06-24 19:01:00,
2013-06-24 15:07:00,76.1,69.8,30.12,East,89,0.0,6.0,81,0.00,,,0.96,meteohub,2013-06-24 19:07:00,
2013-06-24 15:12:00,75.7,70.9,30.11,South,191,0.0,4.0,85,0.00,,,0.96,meteohub,2013-06-24 19:12:00,
2013-06-24 15:17:00,75.2,70.3,30.11,West,266,0.0,3.0,85,0.00,,,0.96,meteohub,2013-06-24 19:17:00,
2013-06-24 15:22:00,74.5,69.6,30.11,ESE,111,0.0,3.0,85,0.00,,,0.96,meteohub,2013-06-24 19:22:00,
2013-06-24 15:27:00,74.3,70.5,30.11,SW,217,0.0,3.0,88,0.00,,,0.96,meteohub,2013-06-24 19:27:00,
2013-06-24 15:32:00,74.5,69.6,30.11,SE,127,3.0,3.0,85,0.00,,,0.96,meteohub,2013-06-24 19:32:00,
2013-06-24 15:37:00,74.3,69.8,30.10,SE,129,0.0,5.0,86,0.00,,,0.96,meteohub,2013-06-24 19:37:00,
2013-06-24 15:42:00,74.7,70.2,30.11,ESE,102,0.0,5.0,86,0.00,,,0.96,meteohub,2013-06-24 19:42:00,
2013-06-24 15:47:00,74.8,70.0,30.10,SE,124,0.0,5.0,85,0.00,,,0.96,meteohub,2013-06-24 19:47:00,
2013-06-24 15:52:00,74.8,69.6,30.10,SE,138,2.0,2.0,84,0.00,,,0.96,meteohub,2013-06-24 19:52:00,
2013-06-24 15:57:00,74.5,70.0,30.10,SSE,166,0.0,4.0,86,0.00,,,0.96,meteohub,2013-06-24 19:57:00,
2013-06-24 16:03:00,75.0,70.5,30.10,East,101,0.0,4.0,86,0.00,,,0.96,meteohub,2013-06-24 20:03:00,
2013-06-24 16:08:00,76.3,70.3,30.10,North,351,0.0,4.0,82,0.00,,,0.96,meteohub,2013-06-24 20:08:00,
2013-06-24 16:13:00,78.1,70.7,30.10,East,80,1.0,3.0,78,0.00,,,0.96,meteohub,2013-06-24 20:13:00,
2013-06-24 16:18:00,78.6,70.0,30.09,ESE,111,2.0,3.0,75,0.00,,,0.96,meteohub,2013-06-24 20:18:00,
2013-06-24 16:23:00,79.5,70.5,30.09,NNW,347,0.0,5.0,74,0.00,,,0.96,meteohub,2013-06-24 20:23:00,
2013-06-24 16:28:00,81.1,70.9,30.09,SE,141,3.0,5.0,71,0.00,,,0.96,meteohub,2013-06-24 20:28:00,
2013-06-24 16:33:00,81.0,68.9,30.10,NNE,12,3.0,4.0,67,0.00,,,0.96,meteohub,2013-06-24 20:33:00,
2013-06-24 16:38:00,80.6,68.2,30.09,WNW,302,1.0,6.0,66,0.00,,,0.96,meteohub,2013-06-24 20:38:00,
2013-06-24 16:44:00,80.4,68.0,30.09,WNW,298,1.0,7.0,66,0.00,,,0.96,meteohub,2013-06-24 20:44:00,
2013-06-24 16:49:00,79.7,67.3,30.09,North,4,3.0,7.0,66,0.00,,,0.96,meteohub,2013-06-24 20:49:00,
2013-06-24 16:54:00,79.9,68.0,30.09,SSE,163,1.0,7.0,67,0.00,,,0.96,meteohub,2013-06-24 20:54:00,
2013-06-24 16:59:00,80.2,68.4,30.10,West,264,3.0,7.0,67,0.00,,,0.96,meteohub,2013-06-24 20:59:00,
2013-06-24 17:04:00,80.2,68.4,30.10,SE,129,0.0,7.0,67,0.00,,,0.96,meteohub,2013-06-24 21:04:00,
2013-06-24 17:09:00,80.2,68.4,30.10,NE,44,0.0,5.0,67,0.00,,,0.96,meteohub,2013-06-24 21:09:00,
2013-06-24 17:14:00,80.2,68.7,30.10,South,174,3.0,5.0,68,0.00,,,0.96,meteohub,2013-06-24 21:14:00,
2013-06-24 17:19:00,80.1,69.4,30.10,ESE,102,1.0,7.0,70,0.00,,,0.96,meteohub,2013-06-24 21:19:00,
2013-06-24 17:24:00,79.7,68.2,30.10,SSE,158,4.0,7.0,68,0.00,,,0.96,meteohub,2013-06-24 21:24:00,
2013-06-24 17:29:00,79.3,68.4,30.09,West,261,0.0,7.0,69,0.00,,,0.96,meteohub,2013-06-24 21:29:00,
2013-06-24 17:34:00,79.7,69.4,30.09,East,98,0.0,7.0,71,0.00,,,0.96,meteohub,2013-06-24 21:34:00,
2013-06-24 17:39:00,79.3,69.4,30.09,SW,224,1.0,7.0,72,0.00,,,0.96,meteohub,2013-06-24 21:39:00,
2013-06-24 17:44:00,79.5,69.6,30.09,NE,49,0.0,5.0,72,0.00,,,0.96,meteohub,2013-06-24 21:44:00,
2013-06-24 17:50:00,79.9,69.6,30.08,SE,137,4.0,5.0,71,0.00,,,0.96,meteohub,2013-06-24 21:50:00,
2013-06-24 17:54:00,79.0,70.0,30.08,ESE,113,1.0,5.0,74,0.00,,,0.96,meteohub,2013-06-24 21:54:00,
2013-06-24 18:00:00,78.6,70.3,30.08,SSE,150,0.0,7.0,76,0.00,,,0.96,meteohub,2013-06-24 22:00:00,
2013-06-24 18:05:00,79.2,70.5,30.08,SSE,149,2.0,7.0,75,0.00,,,0.96,meteohub,2013-06-24 22:05:00,
2013-06-24 18:10:00,79.0,70.3,30.08,South,169,0.0,7.0,75,0.00,,,0.96,meteohub,2013-06-24 22:10:00,
2013-06-24 18:15:00,79.2,70.5,30.08,SE,139,0.0,7.0,75,0.00,,,0.96,meteohub,2013-06-24 22:15:00,
2013-06-24 18:20:00,78.8,70.5,30.08,SE,142,0.0,7.0,76,0.00,,,0.96,meteohub,2013-06-24 22:20:00,
2013-06-24 18:25:00,78.8,70.5,30.08,SE,146,4.0,7.0,76,0.00,,,0.96,meteohub,2013-06-24 22:25:00,
2013-06-24 18:30:00,77.7,70.0,30.08,ESE,113,1.0,10.0,77,0.00,,,0.96,meteohub,2013-06-24 22:30:00,
2013-06-24 18:35:00,77.7,69.1,30.08,NW,320,0.0,10.0,75,0.00,,,0.96,meteohub,2013-06-24 22:35:00,
2013-06-24 18:40:00,77.4,68.4,30.08,SE,137,5.0,10.0,74,0.00,,,0.96,meteohub,2013-06-24 22:40:00,
2013-06-24 18:45:00,76.8,69.1,30.08,South,169,2.0,8.0,77,0.00,,,0.96,meteohub,2013-06-24 22:45:00,
2013-06-24 18:50:00,76.3,68.5,30.08,SE,128,0.0,8.0,77,0.00,,,0.96,meteohub,2013-06-24 22:50:00,
2013-06-24 18:55:00,76.6,69.6,30.09,SSE,162,0.0,8.0,79,0.00,,,0.96,meteohub,2013-06-24 22:55:00,
2013-06-24 19:00:00,76.5,68.7,30.09,SE,142,1.0,6.0,77,0.00,,,0.96,meteohub,2013-06-24 23:00:00,
2013-06-24 19:06:00,75.6,68.2,30.08,ESE,111,0.0,5.0,78,0.00,,,0.96,meteohub,2013-06-24 23:06:00,
2013-06-24 19:11:00,75.0,68.0,30.08,SSE,166,0.0,5.0,79,0.00,,,0.96,meteohub,2013-06-24 23:11:00,
2013-06-24 19:16:00,74.8,68.2,30.08,South,190,1.0,3.0,80,0.00,,,0.96,meteohub,2013-06-24 23:16:00,
2013-06-24 19:21:00,75.2,68.5,30.08,SSE,153,0.0,3.0,80,0.00,,,0.96,meteohub,2013-06-24 23:21:00,
2013-06-24 19:26:00,75.4,68.7,30.08,WNW,300,0.0,3.0,80,0.00,,,0.96,meteohub,2013-06-24 23:26:00,
2013-06-24 19:31:00,74.8,68.5,30.09,East,87,0.0,2.0,81,0.00,,,0.96,meteohub,2013-06-24 23:31:00,
2013-06-24 19:36:00,74.1,68.0,30.09,NW,321,2.0,2.0,81,0.00,,,0.96,meteohub,2013-06-24 23:36:00,
2013-06-24 19:41:00,73.6,67.8,30.09,West,266,0.0,4.0,82,0.00,,,0.96,meteohub,2013-06-24 23:41:00,
2013-06-24 19:46:00,73.0,67.3,30.10,WNW,291,0.0,4.0,82,0.00,,,0.96,meteohub,2013-06-24 23:46:00,
2013-06-24 19:52:00,72.7,66.9,30.10,ESE,105,0.0,4.0,82,0.00,,,0.96,meteohub,2013-06-24 23:52:00,
2013-06-24 19:57:00,72.3,66.9,30.10,SE,129,0.0,4.0,83,0.00,,,0.96,meteohub,2013-06-24 23:57:00,
2013-06-24 20:02:00,72.0,66.6,30.10,SW,231,1.0,5.0,83,0.00,,,0.96,meteohub,2013-06-25 00:02:00,
2013-06-24 20:07:00,71.8,66.4,30.11,SSE,166,0.0,5.0,83,0.00,,,0.00,meteohub,2013-06-25 00:07:00,
2013-06-24 20:12:00,71.8,66.7,30.11,ESE,122,1.0,5.0,84,0.00,,,0.00,meteohub,2013-06-25 00:12:00,
2013-06-24 20:17:00,71.4,66.4,30.11,SE,141,0.0,5.0,84,0.00,,,0.00,meteohub,2013-06-25 00:17:00,
2013-06-24 20:22:00,71.2,66.2,30.10,SSE,162,0.0,4.0,84,0.00,,,0.00,meteohub,2013-06-25 00:22:00,
2013-06-24 20:27:00,71.1,66.0,30.10,SSE,156,0.0,4.0,84,0.00,,,0.00,meteohub,2013-06-25 00:27:00,
2013-06-24 20:32:00,70.9,65.8,30.10,SW,218,0.0,4.0,84,0.00,,,0.00,meteohub,2013-06-25 00:32:00,
2013-06-24 20:38:00,70.5,65.8,30.11,South,173,0.0,2.0,85,0.00,,,0.00,meteohub,2013-06-25 00:38:00,
2013-06-24 20:43:00,70.3,66.0,30.11,SE,131,0.0,2.0,86,0.00,,,0.00,meteohub,2013-06-25 00:43:00,
2013-06-24 20:48:00,70.0,66.0,30.11,NW,315,0.0,4.0,87,0.00,,,0.00,meteohub,2013-06-25 00:48:00,
2013-06-24 20:54:00,69.6,65.7,30.11,NW,326,0.0,4.0,87,0.00,,,0.00,meteohub,2013-06-25 00:54:00,
2013-06-24 20:59:00,69.4,65.7,30.11,NW,326,0.0,3.0,88,0.00,,,0.00,meteohub,2013-06-25 00:59:00,
2013-06-24 21:04:00,69.1,65.3,30.11,SE,140,0.0,1.0,88,0.00,,,0.00,meteohub,2013-06-25 01:04:00,
2013-06-24 21:09:00,68.7,64.9,30.11,West,262,0.0,1.0,88,0.00,,,0.00,meteohub,2013-06-25 01:09:00,
2013-06-24 21:14:00,68.4,65.3,30.12,West,259,0.0,1.0,90,0.00,,,0.00,meteohub,2013-06-25 01:14:00,
2013-06-24 21:19:00,68.2,65.1,30.11,NNE,18,1.0,1.0,90,0.00,,,0.00,meteohub,2013-06-25 01:19:00,
2013-06-24 21:25:00,67.8,65.1,30.11,SE,138,0.0,1.0,91,0.00,,,0.00,meteohub,2013-06-25 01:25:00,
2013-06-24 21:30:00,67.6,65.3,30.11,SE,130,0.0,2.0,92,0.00,,,0.00,meteohub,2013-06-25 01:30:00,
2013-06-24 21:35:00,67.3,64.9,30.11,East,96,0.0,2.0,92,0.00,,,0.00,meteohub,2013-06-25 01:35:00,
2013-06-24 21:40:00,66.9,64.8,30.11,East,94,0.0,2.0,93,0.00,,,0.00,meteohub,2013-06-25 01:40:00,
2013-06-24 21:45:00,66.7,64.6,30.11,East,95,0.0,1.0,93,0.00,,,0.00,meteohub,2013-06-25 01:45:00,
2013-06-24 21:50:00,66.6,64.8,30.12,East,94,0.0,1.0,94,0.00,,,0.00,meteohub,2013-06-25 01:50:00,
2013-06-24 21:55:00,66.4,64.6,30.12,East,95,0.0,0.0,94,0.00,,,0.00,meteohub,2013-06-25 01:55:00,
2013-06-24 22:00:00,66.2,64.8,30.12,East,95,0.0,0.0,95,0.00,,,0.00,meteohub,2013-06-25 02:00:00,
2013-06-24 22:05:00,66.0,64.6,30.12,East,95,0.0,0.0,95,0.00,,,0.00,meteohub,2013-06-25 02:05:00,
2013-06-24 22:11:00,65.8,64.4,30.12,East,96,0.0,0.0,95,0.00,,,0.00,meteohub,2013-06-25 02:11:00,
2013-06-24 22:16:00,65.8,64.6,30.12,SE,128,0.0,1.0,96,0.00,,,0.00,meteohub,2013-06-25 02:16:00,
2013-06-24 22:22:00,65.8,64.6,30.12,SE,124,0.0,1.0,96,0.00,,,0.00,meteohub,2013-06-25 02:22:00,
2013-06-24 22:27:00,65.8,64.6,30.12,SE,124,0.0,1.0,96,0.00,,,0.00,meteohub,2013-06-25 02:27:00,
2013-06-24 22:32:00,65.7,64.4,30.12,SE,124,0.0,1.0,96,0.00,,,0.00,meteohub,2013-06-25 02:32:00,
2013-06-24 22:37:00,65.5,64.2,30.12,SE,124,0.0,1.0,96,0.00,,,0.00,meteohub,2013-06-25 02:37:00,
2013-06-24 22:42:00,65.5,64.2,30.12,SE,127,0.0,0.0,96,0.00,,,0.00,meteohub,2013-06-25 02:42:00,
2013-06-24 22:47:00,65.5,64.2,30.12,SE,127,0.0,1.0,96,0.00,,,0.00,meteohub,2013-06-25 02:47:00,
2013-06-24 22:52:00,65.5,64.6,30.12,SE,127,0.0,1.0,97,0.00,,,0.00,meteohub,2013-06-25 02:52:00,
2013-06-24 22:57:00,65.5,64.6,30.12,SE,127,0.0,0.0,97,0.00,,,0.00,meteohub,2013-06-25 02:57:00,
2013-06-24 23:02:00,65.5,64.6,30.12,SE,127,0.0,0.0,97,0.00,,,0.00,meteohub,2013-06-25 03:02:00,
2013-06-24 23:07:00,65.5,64.6,30.13,SE,127,0.0,0.0,97,0.00,,,0.00,meteohub,2013-06-25 03:07:00,
2013-06-24 23:12:00,65.3,64.4,30.13,SE,127,0.0,0.0,97,0.00,,,0.00,meteohub,2013-06-25 03:12:00,
2013-06-24 23:17:00,65.5,64.6,30.12,ESE,121,0.0,0.0,97,0.00,,,0.00,meteohub,2013-06-25 03:17:00,
2013-06-24 23:23:00,65.3,64.4,30.13,SE,124,0.0,0.0,97,0.00,,,0.00,meteohub,2013-06-25 03:23:00,
2013-06-24 23:28:00,65.5,64.9,30.13,NNW,330,0.0,0.0,98,0.00,,,0.00,meteohub,2013-06-25 03:28:00,
2013-06-24 23:34:00,65.5,64.6,30.13,NNW,330,0.0,1.0,97,0.00,,,0.00,meteohub,2013-06-25 03:34:00,
2013-06-24 23:39:00,65.5,64.9,30.13,NNW,330,0.0,1.0,98,0.00,,,0.00,meteohub,2013-06-25 03:39:00,
2013-06-24 23:44:00,65.5,64.9,30.13,NNW,330,0.0,1.0,98,0.00,,,0.00,meteohub,2013-06-25 03:44:00,
2013-06-24 23:49:00,65.7,65.1,30.13,NNW,330,0.0,1.0,98,0.00,,,0.00,meteohub,2013-06-25 03:49:00,
2013-06-24 23:54:00,65.7,65.1,30.13,NNW,330,0.0,1.0,98,0.00,,,0.00,meteohub,2013-06-25 03:54:00,